sensor_id;sensor_type;location;lat;lon;timestamp;temperature;humidity
31391;DHT22;18022;45.492;11.548;2023-09-07T00:01:34;18.40;99.90
31391;DHT22;18022;45.492;11.548;2023-09-07T00:04:00;18.50;99.90
31391;DHT22;18022;45.492;11.548;2023-09-07T00:06:26;18.40;99.90
31391;DHT22;18022;45.492;11.548;2023-09-07T00:08:52;18.40;99.90
31391;DHT22;18022;45.492;11.548;2023-09-07T00:11:17;18.40;99.90
31391;DHT22;18022;45.492;11.548;2023-09-07T00:13:43;18.40;99.90
31391;DHT22;18022;45.492;11.548;2023-09-07T00:16:09;18.40;99.90
31391;DHT22;18022;45.492;11.548;2023-09-07T00:18:34;18.40;99.90
31391;DHT22;18022;45.492;11.548;2023-09-07T00:21:00;18.40;99.90
31391;DHT22;18022;45.492;11.548;2023-09-07T00:23:26;18.50;99.90
31391;DHT22;18022;45.492;11.548;2023-09-07T00:25:52;18.40;99.90
31391;DHT22;18022;45.492;11.548;2023-09-07T00:28:18;18.40;99.90
31391;DHT22;18022;45.492;11.548;2023-09-07T00:30:44;18.40;99.90
31391;DHT22;18022;45.492;11.548;2023-09-07T00:33:10;18.30;99.90
31391;DHT22;18022;45.492;11.548;2023-09-07T00:35:36;18.20;99.90
31391;DHT22;18022;45.492;11.548;2023-09-07T00:38:02;18.30;99.90
31391;DHT22;18022;45.492;11.548;2023-09-07T00:40:28;18.30;99.90
31391;DHT22;18022;45.492;11.548;2023-09-07T00:42:54;18.30;99.90
31391;DHT22;18022;45.492;11.548;2023-09-07T00:45:20;18.20;99.90
31391;DHT22;18022;45.492;11.548;2023-09-07T00:47:46;18.30;99.90
31391;DHT22;18022;45.492;11.548;2023-09-07T00:50:12;18.30;99.90
31391;DHT22;18022;45.492;11.548;2023-09-07T00:52:45;18.20;99.90
31391;DHT22;18022;45.492;11.548;2023-09-07T00:55:12;18.10;99.90
31391;DHT22;18022;45.492;11.548;2023-09-07T00:57:38;18.10;99.90
31391;DHT22;18022;45.492;11.548;2023-09-07T01:00:06;18.00;99.90
31391;DHT22;18022;45.492;11.548;2023-09-07T01:02:33;18.00;99.90
31391;DHT22;18022;45.492;11.548;2023-09-07T01:04:59;18.00;99.90
31391;DHT22;18022;45.492;11.548;2023-09-07T01:07:35;18.00;99.90
31391;DHT22;18022;45.492;11.548;2023-09-07T01:10:02;18.00;99.90
31391;DHT22;18022;45.492;11.548;2023-09-07T01:12:28;17.90;99.90
31391;DHT22;18022;45.492;11.548;2023-09-07T01:14:54;18.00;99.90
31391;DHT22;18022;45.492;11.548;2023-09-07T01:17:21;17.90;99.90
31391;DHT22;18022;45.492;11.548;2023-09-07T01:19:48;17.80;99.90
31391;DHT22;18022;45.492;11.548;2023-09-07T01:22:20;17.80;99.90
31391;DHT22;18022;45.492;11.548;2023-09-07T01:24:48;17.90;99.90
31391;DHT22;18022;45.492;11.548;2023-09-07T01:27:16;17.80;99.90
31391;DHT22;18022;45.492;11.548;2023-09-07T01:29:41;17.90;99.90
31391;DHT22;18022;45.492;11.548;2023-09-07T01:32:07;18.00;99.90
31391;DHT22;18022;45.492;11.548;2023-09-07T01:34:35;18.00;99.90
31391;DHT22;18022;45.492;11.548;2023-09-07T01:37:01;18.00;99.90
31391;DHT22;18022;45.492;11.548;2023-09-07T01:39:26;17.90;99.90
31391;DHT22;18022;45.492;11.548;2023-09-07T01:41:52;17.80;99.90
31391;DHT22;18022;45.492;11.548;2023-09-07T01:44:17;17.80;99.90
31391;DHT22;18022;45.492;11.548;2023-09-07T01:46:43;17.80;99.90
31391;DHT22;18022;45.492;11.548;2023-09-07T01:49:09;17.80;99.90
31391;DHT22;18022;45.492;11.548;2023-09-07T01:51:34;17.90;99.90
31391;DHT22;18022;45.492;11.548;2023-09-07T01:54:00;17.90;99.90
31391;DHT22;18022;45.492;11.548;2023-09-07T01:56:26;17.90;99.90
31391;DHT22;18022;45.492;11.548;2023-09-07T01:58:52;17.90;99.90
31391;DHT22;18022;45.492;11.548;2023-09-07T02:01:24;17.90;99.90
31391;DHT22;18022;45.492;11.548;2023-09-07T02:03:50;17.80;99.90
31391;DHT22;18022;45.492;11.548;2023-09-07T02:06:16;17.80;99.90
31391;DHT22;18022;45.492;11.548;2023-09-07T02:08:42;17.80;99.90
31391;DHT22;18022;45.492;11.548;2023-09-07T02:11:07;17.70;99.90
31391;DHT22;18022;45.492;11.548;2023-09-07T02:13:33;17.90;99.90
31391;DHT22;18022;45.492;11.548;2023-09-07T02:16:03;17.80;99.90
31391;DHT22;18022;45.492;11.548;2023-09-07T02:18:29;17.80;99.90
31391;DHT22;18022;45.492;11.548;2023-09-07T02:20:54;17.70;99.90
31391;DHT22;18022;45.492;11.548;2023-09-07T02:23:20;17.70;99.90
31391;DHT22;18022;45.492;11.548;2023-09-07T02:25:46;17.70;99.90
31391;DHT22;18022;45.492;11.548;2023-09-07T02:28:11;17.80;99.90
31391;DHT22;18022;45.492;11.548;2023-09-07T02:30:37;17.80;99.90
31391;DHT22;18022;45.492;11.548;2023-09-07T02:33:03;17.80;99.90
31391;DHT22;18022;45.492;11.548;2023-09-07T02:35:29;17.80;99.90
31391;DHT22;18022;45.492;11.548;2023-09-07T02:37:56;17.90;99.90
31391;DHT22;18022;45.492;11.548;2023-09-07T02:40:22;18.00;99.90
31391;DHT22;18022;45.492;11.548;2023-09-07T02:42:48;17.80;99.90
31391;DHT22;18022;45.492;11.548;2023-09-07T02:45:14;17.90;99.90
31391;DHT22;18022;45.492;11.548;2023-09-07T02:47:40;17.90;99.90
31391;DHT22;18022;45.492;11.548;2023-09-07T02:50:06;17.70;99.90
31391;DHT22;18022;45.492;11.548;2023-09-07T02:52:32;17.60;99.90
31391;DHT22;18022;45.492;11.548;2023-09-07T02:54:57;17.60;99.90
31391;DHT22;18022;45.492;11.548;2023-09-07T02:57:23;17.50;99.90
31391;DHT22;18022;45.492;11.548;2023-09-07T02:59:48;17.60;99.90
31391;DHT22;18022;45.492;11.548;2023-09-07T03:02:14;17.60;99.90
31391;DHT22;18022;45.492;11.548;2023-09-07T03:04:40;17.60;99.90
31391;DHT22;18022;45.492;11.548;2023-09-07T03:07:05;17.50;99.90
31391;DHT22;18022;45.492;11.548;2023-09-07T03:09:31;17.60;99.90
31391;DHT22;18022;45.492;11.548;2023-09-07T03:11:57;17.60;99.90
31391;DHT22;18022;45.492;11.548;2023-09-07T03:14:22;17.50;99.90
31391;DHT22;18022;45.492;11.548;2023-09-07T03:16:50;17.40;99.90
31391;DHT22;18022;45.492;11.548;2023-09-07T03:19:15;17.20;99.90
31391;DHT22;18022;45.492;11.548;2023-09-07T03:21:42;17.30;99.90
31391;DHT22;18022;45.492;11.548;2023-09-07T03:24:07;17.40;99.90
31391;DHT22;18022;45.492;11.548;2023-09-07T03:26:33;17.40;99.90
31391;DHT22;18022;45.492;11.548;2023-09-07T03:29:00;17.50;99.90
31391;DHT22;18022;45.492;11.548;2023-09-07T03:31:26;17.50;99.90
31391;DHT22;18022;45.492;11.548;2023-09-07T03:33:51;17.40;99.90
31391;DHT22;18022;45.492;11.548;2023-09-07T03:36:17;17.50;99.90
31391;DHT22;18022;45.492;11.548;2023-09-07T03:38:43;17.50;99.90
31391;DHT22;18022;45.492;11.548;2023-09-07T03:41:09;17.50;99.90
31391;DHT22;18022;45.492;11.548;2023-09-07T03:43:34;17.50;99.90
31391;DHT22;18022;45.492;11.548;2023-09-07T03:46:00;17.40;99.90
31391;DHT22;18022;45.492;11.548;2023-09-07T03:48:26;17.20;99.90
31391;DHT22;18022;45.492;11.548;2023-09-07T03:50:51;17.10;99.90
31391;DHT22;18022;45.492;11.548;2023-09-07T03:53:17;17.10;99.90
31391;DHT22;18022;45.492;11.548;2023-09-07T03:55:44;17.10;99.90
31391;DHT22;18022;45.492;11.548;2023-09-07T03:58:11;16.90;99.90
31391;DHT22;18022;45.492;11.548;2023-09-07T04:00:40;16.90;99.90
31391;DHT22;18022;45.492;11.548;2023-09-07T04:03:07;17.10;99.90
31391;DHT22;18022;45.492;11.548;2023-09-07T04:05:33;17.10;99.90
31391;DHT22;18022;45.492;11.548;2023-09-07T04:07:59;17.10;99.90
31391;DHT22;18022;45.492;11.548;2023-09-07T04:10:26;17.10;99.90
31391;DHT22;18022;45.492;11.548;2023-09-07T04:12:52;17.00;99.90
31391;DHT22;18022;45.492;11.548;2023-09-07T04:15:17;16.90;99.90
31391;DHT22;18022;45.492;11.548;2023-09-07T04:17:43;16.70;99.90
31391;DHT22;18022;45.492;11.548;2023-09-07T04:20:09;16.70;99.90
31391;DHT22;18022;45.492;11.548;2023-09-07T04:22:38;16.70;99.90
31391;DHT22;18022;45.492;11.548;2023-09-07T04:25:04;16.70;99.90
31391;DHT22;18022;45.492;11.548;2023-09-07T04:27:30;16.80;99.90
31391;DHT22;18022;45.492;11.548;2023-09-07T04:29:56;16.70;99.90
31391;DHT22;18022;45.492;11.548;2023-09-07T04:32:22;16.70;99.90
31391;DHT22;18022;45.492;11.548;2023-09-07T04:34:47;16.80;99.90
31391;DHT22;18022;45.492;11.548;2023-09-07T04:37:17;16.90;99.90
31391;DHT22;18022;45.492;11.548;2023-09-07T04:39:43;17.00;99.90
31391;DHT22;18022;45.492;11.548;2023-09-07T04:42:09;17.10;99.90
31391;DHT22;18022;45.492;11.548;2023-09-07T04:44:34;17.00;99.90
31391;DHT22;18022;45.492;11.548;2023-09-07T04:47:00;16.90;99.90
31391;DHT22;18022;45.492;11.548;2023-09-07T04:49:26;17.00;99.90
31391;DHT22;18022;45.492;11.548;2023-09-07T04:51:54;17.00;99.90
31391;DHT22;18022;45.492;11.548;2023-09-07T04:54:20;17.10;99.90
31391;DHT22;18022;45.492;11.548;2023-09-07T04:56:46;17.10;99.90
31391;DHT22;18022;45.492;11.548;2023-09-07T04:59:11;17.00;99.90
31391;DHT22;18022;45.492;11.548;2023-09-07T05:01:37;17.10;99.90
31391;DHT22;18022;45.492;11.548;2023-09-07T05:04:03;17.10;99.90
31391;DHT22;18022;45.492;11.548;2023-09-07T05:06:29;17.00;99.90
31391;DHT22;18022;45.492;11.548;2023-09-07T05:08:55;17.00;99.90
31391;DHT22;18022;45.492;11.548;2023-09-07T05:11:21;17.20;99.90
31391;DHT22;18022;45.492;11.548;2023-09-07T05:13:46;17.20;99.90
31391;DHT22;18022;45.492;11.548;2023-09-07T05:16:12;17.20;99.90
31391;DHT22;18022;45.492;11.548;2023-09-07T05:18:38;17.10;99.90
31391;DHT22;18022;45.492;11.548;2023-09-07T05:21:14;17.10;99.90
31391;DHT22;18022;45.492;11.548;2023-09-07T05:23:40;17.10;99.90
31391;DHT22;18022;45.492;11.548;2023-09-07T05:26:06;17.00;99.90
31391;DHT22;18022;45.492;11.548;2023-09-07T05:28:32;17.00;99.90
31391;DHT22;18022;45.492;11.548;2023-09-07T05:30:57;17.10;99.90
31391;DHT22;18022;45.492;11.548;2023-09-07T05:33:23;17.10;99.90
31391;DHT22;18022;45.492;11.548;2023-09-07T05:35:49;17.30;99.90
31391;DHT22;18022;45.492;11.548;2023-09-07T05:38:15;17.30;99.90
31391;DHT22;18022;45.492;11.548;2023-09-07T05:40:42;17.40;99.90
31391;DHT22;18022;45.492;11.548;2023-09-07T05:43:12;17.60;99.90
31391;DHT22;18022;45.492;11.548;2023-09-07T05:45:41;17.70;99.90
31391;DHT22;18022;45.492;11.548;2023-09-07T05:48:07;17.60;99.90
31391;DHT22;18022;45.492;11.548;2023-09-07T05:50:37;17.60;99.90
31391;DHT22;18022;45.492;11.548;2023-09-07T05:53:03;17.70;99.90
31391;DHT22;18022;45.492;11.548;2023-09-07T05:55:29;17.80;99.90
31391;DHT22;18022;45.492;11.548;2023-09-07T05:57:56;17.80;99.90
31391;DHT22;18022;45.492;11.548;2023-09-07T06:00:22;17.90;99.90
31391;DHT22;18022;45.492;11.548;2023-09-07T06:02:49;18.00;99.90
31391;DHT22;18022;45.492;11.548;2023-09-07T06:05:15;18.10;99.90
31391;DHT22;18022;45.492;11.548;2023-09-07T06:07:41;18.20;99.90
31391;DHT22;18022;45.492;11.548;2023-09-07T06:10:07;18.20;99.90
31391;DHT22;18022;45.492;11.548;2023-09-07T06:12:33;18.30;99.90
31391;DHT22;18022;45.492;11.548;2023-09-07T06:15:02;18.40;99.90
31391;DHT22;18022;45.492;11.548;2023-09-07T06:17:29;18.60;99.90
31391;DHT22;18022;45.492;11.548;2023-09-07T06:19:55;18.60;99.90
31391;DHT22;18022;45.492;11.548;2023-09-07T06:22:20;18.70;99.90
31391;DHT22;18022;45.492;11.548;2023-09-07T06:24:46;18.70;99.90
31391;DHT22;18022;45.492;11.548;2023-09-07T06:27:12;18.80;99.90
31391;DHT22;18022;45.492;11.548;2023-09-07T06:29:38;18.90;99.90
31391;DHT22;18022;45.492;11.548;2023-09-07T06:32:04;19.00;99.90
31391;DHT22;18022;45.492;11.548;2023-09-07T06:34:29;19.00;99.90
31391;DHT22;18022;45.492;11.548;2023-09-07T06:36:55;19.10;99.90
31391;DHT22;18022;45.492;11.548;2023-09-07T06:39:21;19.20;99.90
31391;DHT22;18022;45.492;11.548;2023-09-07T06:41:47;19.30;99.90
31391;DHT22;18022;45.492;11.548;2023-09-07T06:44:13;19.40;99.90
31391;DHT22;18022;45.492;11.548;2023-09-07T06:46:39;19.50;99.90
31391;DHT22;18022;45.492;11.548;2023-09-07T06:49:05;19.60;99.90
31391;DHT22;18022;45.492;11.548;2023-09-07T06:51:31;19.70;99.90
31391;DHT22;18022;45.492;11.548;2023-09-07T06:53:57;19.70;99.90
31391;DHT22;18022;45.492;11.548;2023-09-07T06:56:23;19.90;99.90
31391;DHT22;18022;45.492;11.548;2023-09-07T06:58:49;20.00;99.90
31391;DHT22;18022;45.492;11.548;2023-09-07T07:01:15;20.00;99.90
31391;DHT22;18022;45.492;11.548;2023-09-07T07:03:41;20.10;99.90
31391;DHT22;18022;45.492;11.548;2023-09-07T07:06:07;20.20;99.90
31391;DHT22;18022;45.492;11.548;2023-09-07T07:08:33;20.30;99.90
31391;DHT22;18022;45.492;11.548;2023-09-07T07:10:58;20.40;99.90
31391;DHT22;18022;45.492;11.548;2023-09-07T07:13:24;20.50;99.90
31391;DHT22;18022;45.492;11.548;2023-09-07T07:15:50;20.60;99.90
31391;DHT22;18022;45.492;11.548;2023-09-07T07:18:15;20.70;99.90
31391;DHT22;18022;45.492;11.548;2023-09-07T07:20:43;20.90;99.90
31391;DHT22;18022;45.492;11.548;2023-09-07T07:23:12;20.90;99.90
31391;DHT22;18022;45.492;11.548;2023-09-07T07:25:38;21.00;99.90
31391;DHT22;18022;45.492;11.548;2023-09-07T07:28:04;21.10;99.90
31391;DHT22;18022;45.492;11.548;2023-09-07T07:30:38;21.20;99.90
31391;DHT22;18022;45.492;11.548;2023-09-07T07:33:06;21.20;99.90
31391;DHT22;18022;45.492;11.548;2023-09-07T07:35:33;21.40;99.90
31391;DHT22;18022;45.492;11.548;2023-09-07T07:38:00;21.50;99.90
31391;DHT22;18022;45.492;11.548;2023-09-07T07:40:26;21.60;99.90
31391;DHT22;18022;45.492;11.548;2023-09-07T07:42:52;21.70;99.90
31391;DHT22;18022;45.492;11.548;2023-09-07T07:45:19;21.90;99.90
31391;DHT22;18022;45.492;11.548;2023-09-07T07:47:51;22.00;99.90
31391;DHT22;18022;45.492;11.548;2023-09-07T07:50:17;22.10;99.90
31391;DHT22;18022;45.492;11.548;2023-09-07T07:52:43;22.10;99.90
31391;DHT22;18022;45.492;11.548;2023-09-07T07:55:09;22.20;99.90
31391;DHT22;18022;45.492;11.548;2023-09-07T07:57:35;22.30;99.90
31391;DHT22;18022;45.492;11.548;2023-09-07T08:00:02;22.50;99.90
31391;DHT22;18022;45.492;11.548;2023-09-07T08:02:29;22.50;99.90
31391;DHT22;18022;45.492;11.548;2023-09-07T08:04:55;22.60;99.90
31391;DHT22;18022;45.492;11.548;2023-09-07T08:07:21;22.60;99.90
31391;DHT22;18022;45.492;11.548;2023-09-07T08:09:47;22.70;99.90
31391;DHT22;18022;45.492;11.548;2023-09-07T08:12:13;22.80;99.90
31391;DHT22;18022;45.492;11.548;2023-09-07T08:14:38;22.90;99.90
31391;DHT22;18022;45.492;11.548;2023-09-07T08:17:04;23.10;99.90
31391;DHT22;18022;45.492;11.548;2023-09-07T08:19:30;23.20;99.90
31391;DHT22;18022;45.492;11.548;2023-09-07T08:21:57;23.30;99.90
31391;DHT22;18022;45.492;11.548;2023-09-07T08:24:23;23.40;99.90
31391;DHT22;18022;45.492;11.548;2023-09-07T08:26:49;23.60;99.90
31391;DHT22;18022;45.492;11.548;2023-09-07T08:29:20;23.70;99.90
31391;DHT22;18022;45.492;11.548;2023-09-07T08:31:46;23.90;99.90
31391;DHT22;18022;45.492;11.548;2023-09-07T08:34:14;23.90;99.90
31391;DHT22;18022;45.492;11.548;2023-09-07T08:36:44;24.00;99.90
31391;DHT22;18022;45.492;11.548;2023-09-07T08:39:12;24.20;99.90
31391;DHT22;18022;45.492;11.548;2023-09-07T08:41:42;24.20;99.90
31391;DHT22;18022;45.492;11.548;2023-09-07T08:44:19;24.40;99.90
31391;DHT22;18022;45.492;11.548;2023-09-07T08:46:49;24.40;99.90
31391;DHT22;18022;45.492;11.548;2023-09-07T08:49:15;24.60;99.90
31391;DHT22;18022;45.492;11.548;2023-09-07T08:51:44;24.60;99.90
31391;DHT22;18022;45.492;11.548;2023-09-07T08:54:12;24.80;99.90
31391;DHT22;18022;45.492;11.548;2023-09-07T08:56:38;24.90;99.90
31391;DHT22;18022;45.492;11.548;2023-09-07T08:59:04;24.90;99.90
31391;DHT22;18022;45.492;11.548;2023-09-07T09:01:30;25.00;99.90
31391;DHT22;18022;45.492;11.548;2023-09-07T09:03:59;24.90;99.90
31391;DHT22;18022;45.492;11.548;2023-09-07T09:06:25;25.00;99.90
31391;DHT22;18022;45.492;11.548;2023-09-07T09:08:52;25.10;99.90
31391;DHT22;18022;45.492;11.548;2023-09-07T09:11:18;25.10;99.90
31391;DHT22;18022;45.492;11.548;2023-09-07T09:13:45;25.20;99.50
31391;DHT22;18022;45.492;11.548;2023-09-07T09:16:11;25.20;99.40
31391;DHT22;18022;45.492;11.548;2023-09-07T09:18:46;25.40;99.40
31391;DHT22;18022;45.492;11.548;2023-09-07T09:21:14;25.60;99.30
31391;DHT22;18022;45.492;11.548;2023-09-07T09:23:41;25.70;99.00
31391;DHT22;18022;45.492;11.548;2023-09-07T09:26:07;25.60;98.80
31391;DHT22;18022;45.492;11.548;2023-09-07T09:28:33;25.70;98.20
31391;DHT22;18022;45.492;11.548;2023-09-07T09:31:03;25.90;97.90
31391;DHT22;18022;45.492;11.548;2023-09-07T09:33:32;26.00;99.40
31391;DHT22;18022;45.492;11.548;2023-09-07T09:35:59;26.10;97.70
31391;DHT22;18022;45.492;11.548;2023-09-07T09:38:25;26.20;98.10
31391;DHT22;18022;45.492;11.548;2023-09-07T09:40:52;26.20;96.70
31391;DHT22;18022;45.492;11.548;2023-09-07T09:43:20;26.20;96.40
31391;DHT22;18022;45.492;11.548;2023-09-07T09:45:46;26.30;95.90
31391;DHT22;18022;45.492;11.548;2023-09-07T09:48:15;26.20;95.90
31391;DHT22;18022;45.492;11.548;2023-09-07T09:50:42;26.40;96.00
31391;DHT22;18022;45.492;11.548;2023-09-07T09:53:09;26.40;96.40
31391;DHT22;18022;45.492;11.548;2023-09-07T09:55:41;26.70;95.60
31391;DHT22;18022;45.492;11.548;2023-09-07T09:58:07;26.70;95.60
31391;DHT22;18022;45.492;11.548;2023-09-07T10:00:33;26.60;94.80
31391;DHT22;18022;45.492;11.548;2023-09-07T10:03:12;26.60;95.60
31391;DHT22;18022;45.492;11.548;2023-09-07T10:05:39;26.70;95.60
31391;DHT22;18022;45.492;11.548;2023-09-07T10:08:11;26.90;96.10
31391;DHT22;18022;45.492;11.548;2023-09-07T10:10:38;27.10;95.70
31391;DHT22;18022;45.492;11.548;2023-09-07T10:13:04;27.10;94.60
31391;DHT22;18022;45.492;11.548;2023-09-07T10:15:31;27.10;95.10
31391;DHT22;18022;45.492;11.548;2023-09-07T10:18:15;27.00;94.50
31391;DHT22;18022;45.492;11.548;2023-09-07T10:23:14;27.20;94.50
31391;DHT22;18022;45.492;11.548;2023-09-07T10:25:40;27.30;94.00
31391;DHT22;18022;45.492;11.548;2023-09-07T10:28:06;27.30;94.40
31391;DHT22;18022;45.492;11.548;2023-09-07T10:30:42;27.40;94.50
31391;DHT22;18022;45.492;11.548;2023-09-07T10:33:19;27.60;94.60
31391;DHT22;18022;45.492;11.548;2023-09-07T10:35:45;27.90;93.60
31391;DHT22;18022;45.492;11.548;2023-09-07T10:38:13;27.60;93.60
31391;DHT22;18022;45.492;11.548;2023-09-07T10:40:43;27.50;93.60
31391;DHT22;18022;45.492;11.548;2023-09-07T10:43:11;27.80;93.80
31391;DHT22;18022;45.492;11.548;2023-09-07T10:45:37;27.90;93.60
31391;DHT22;18022;45.492;11.548;2023-09-07T10:48:03;27.80;93.00
31391;DHT22;18022;45.492;11.548;2023-09-07T10:50:29;27.70;92.90
31391;DHT22;18022;45.492;11.548;2023-09-07T10:52:55;27.70;92.80
31391;DHT22;18022;45.492;11.548;2023-09-07T10:55:21;27.60;93.10
31391;DHT22;18022;45.492;11.548;2023-09-07T10:57:47;27.70;92.90
31391;DHT22;18022;45.492;11.548;2023-09-07T11:00:14;27.60;93.10
31391;DHT22;18022;45.492;11.548;2023-09-07T11:02:43;27.90;92.80
31391;DHT22;18022;45.492;11.548;2023-09-07T11:05:09;28.00;93.40
31391;DHT22;18022;45.492;11.548;2023-09-07T11:07:36;28.10;92.60
31391;DHT22;18022;45.492;11.548;2023-09-07T11:10:06;28.10;92.30
31391;DHT22;18022;45.492;11.548;2023-09-07T11:12:39;28.00;92.80
31391;DHT22;18022;45.492;11.548;2023-09-07T11:15:09;27.90;92.80
31391;DHT22;18022;45.492;11.548;2023-09-07T11:17:37;28.10;93.00
31391;DHT22;18022;45.492;11.548;2023-09-07T11:20:05;28.20;91.90
31391;DHT22;18022;45.492;11.548;2023-09-07T11:22:36;28.20;92.60
31391;DHT22;18022;45.492;11.548;2023-09-07T11:25:05;28.40;92.80
31391;DHT22;18022;45.492;11.548;2023-09-07T11:27:32;28.30;91.60
31391;DHT22;18022;45.492;11.548;2023-09-07T11:29:58;28.30;92.10
31391;DHT22;18022;45.492;11.548;2023-09-07T11:32:33;28.50;92.50
31391;DHT22;18022;45.492;11.548;2023-09-07T11:34:59;28.50;91.00
31391;DHT22;18022;45.492;11.548;2023-09-07T11:37:25;28.40;91.40
31391;DHT22;18022;45.492;11.548;2023-09-07T11:39:53;28.40;91.40
31391;DHT22;18022;45.492;11.548;2023-09-07T11:42:18;28.30;91.40
31391;DHT22;18022;45.492;11.548;2023-09-07T11:44:45;28.40;90.70
31391;DHT22;18022;45.492;11.548;2023-09-07T11:47:11;28.30;91.30
31391;DHT22;18022;45.492;11.548;2023-09-07T11:49:37;28.40;91.20
31391;DHT22;18022;45.492;11.548;2023-09-07T11:52:03;28.40;91.00
31391;DHT22;18022;45.492;11.548;2023-09-07T11:54:29;28.60;91.90
31391;DHT22;18022;45.492;11.548;2023-09-07T11:56:54;28.70;91.60
31391;DHT22;18022;45.492;11.548;2023-09-07T11:59:20;28.70;91.30
31391;DHT22;18022;45.492;11.548;2023-09-07T12:01:46;28.60;91.10
31391;DHT22;18022;45.492;11.548;2023-09-07T12:04:11;28.90;90.60
31391;DHT22;18022;45.492;11.548;2023-09-07T12:06:38;28.70;90.40
31391;DHT22;18022;45.492;11.548;2023-09-07T12:09:05;28.70;91.00
31391;DHT22;18022;45.492;11.548;2023-09-07T12:11:35;28.90;91.30
31391;DHT22;18022;45.492;11.548;2023-09-07T12:14:01;29.10;90.40
31391;DHT22;18022;45.492;11.548;2023-09-07T12:16:28;29.00;90.60
31391;DHT22;18022;45.492;11.548;2023-09-07T12:18:54;28.90;90.40
31391;DHT22;18022;45.492;11.548;2023-09-07T12:21:20;28.80;90.40
31391;DHT22;18022;45.492;11.548;2023-09-07T12:23:46;29.00;91.20
31391;DHT22;18022;45.492;11.548;2023-09-07T12:26:14;28.90;90.80
31391;DHT22;18022;45.492;11.548;2023-09-07T12:28:42;28.90;91.40
31391;DHT22;18022;45.492;11.548;2023-09-07T12:31:07;29.20;91.20
31391;DHT22;18022;45.492;11.548;2023-09-07T12:33:33;29.20;91.60
31391;DHT22;18022;45.492;11.548;2023-09-07T12:35:59;29.00;90.70
31391;DHT22;18022;45.492;11.548;2023-09-07T12:38:25;29.10;91.20
31391;DHT22;18022;45.492;11.548;2023-09-07T12:40:54;29.20;91.60
31391;DHT22;18022;45.492;11.548;2023-09-07T12:43:20;29.10;91.80
31391;DHT22;18022;45.492;11.548;2023-09-07T12:45:46;29.10;91.00
31391;DHT22;18022;45.492;11.548;2023-09-07T12:48:12;28.90;91.00
31391;DHT22;18022;45.492;11.548;2023-09-07T12:50:38;28.90;91.00
31391;DHT22;18022;45.492;11.548;2023-09-07T12:53:05;28.90;91.20
31391;DHT22;18022;45.492;11.548;2023-09-07T12:55:31;28.70;91.50
31391;DHT22;18022;45.492;11.548;2023-09-07T12:57:58;28.80;91.40
31391;DHT22;18022;45.492;11.548;2023-09-07T13:00:24;28.90;91.30
31391;DHT22;18022;45.492;11.548;2023-09-07T13:02:50;29.00;89.70
31391;DHT22;18022;45.492;11.548;2023-09-07T13:05:15;29.30;90.70
31391;DHT22;18022;45.492;11.548;2023-09-07T13:07:41;29.40;90.10
31391;DHT22;18022;45.492;11.548;2023-09-07T13:10:09;29.20;90.20
31391;DHT22;18022;45.492;11.548;2023-09-07T13:12:36;29.30;89.30
31391;DHT22;18022;45.492;11.548;2023-09-07T13:15:03;29.40;90.70
31391;DHT22;18022;45.492;11.548;2023-09-07T13:17:28;29.40;90.10
31391;DHT22;18022;45.492;11.548;2023-09-07T13:19:54;29.50;90.20
31391;DHT22;18022;45.492;11.548;2023-09-07T13:22:20;29.40;90.10
31391;DHT22;18022;45.492;11.548;2023-09-07T13:24:45;29.20;89.80
31391;DHT22;18022;45.492;11.548;2023-09-07T13:27:11;29.00;90.70
31391;DHT22;18022;45.492;11.548;2023-09-07T13:29:37;29.40;90.80
31391;DHT22;18022;45.492;11.548;2023-09-07T13:32:03;29.30;90.40
31391;DHT22;18022;45.492;11.548;2023-09-07T13:34:28;29.50;90.10
31391;DHT22;18022;45.492;11.548;2023-09-07T13:36:54;29.50;90.40
31391;DHT22;18022;45.492;11.548;2023-09-07T13:39:21;29.40;90.00
31391;DHT22;18022;45.492;11.548;2023-09-07T13:41:47;29.30;90.40
31391;DHT22;18022;45.492;11.548;2023-09-07T13:44:14;29.30;91.10
31391;DHT22;18022;45.492;11.548;2023-09-07T13:46:40;29.20;91.50
31391;DHT22;18022;45.492;11.548;2023-09-07T13:49:06;29.20;90.70
31391;DHT22;18022;45.492;11.548;2023-09-07T13:51:32;29.10;89.70
31391;DHT22;18022;45.492;11.548;2023-09-07T13:54:07;29.00;90.20
31391;DHT22;18022;45.492;11.548;2023-09-07T13:56:33;29.00;90.80
31391;DHT22;18022;45.492;11.548;2023-09-07T13:59:00;29.20;90.50
31391;DHT22;18022;45.492;11.548;2023-09-07T14:01:26;29.20;90.60
31391;DHT22;18022;45.492;11.548;2023-09-07T14:03:51;29.30;90.80
31391;DHT22;18022;45.492;11.548;2023-09-07T14:06:17;29.20;90.50
31391;DHT22;18022;45.492;11.548;2023-09-07T14:08:45;29.20;90.80
31391;DHT22;18022;45.492;11.548;2023-09-07T14:11:11;28.90;90.40
31391;DHT22;18022;45.492;11.548;2023-09-07T14:13:37;28.80;90.20
31391;DHT22;18022;45.492;11.548;2023-09-07T14:16:03;28.90;90.80
31391;DHT22;18022;45.492;11.548;2023-09-07T14:18:30;29.00;91.00
31391;DHT22;18022;45.492;11.548;2023-09-07T14:20:55;29.20;91.20
31391;DHT22;18022;45.492;11.548;2023-09-07T14:23:24;29.20;90.60
31391;DHT22;18022;45.492;11.548;2023-09-07T14:25:52;29.00;90.60
31391;DHT22;18022;45.492;11.548;2023-09-07T14:28:17;28.60;90.10
31391;DHT22;18022;45.492;11.548;2023-09-07T14:30:43;28.70;90.90
31391;DHT22;18022;45.492;11.548;2023-09-07T14:33:09;28.60;90.90
31391;DHT22;18022;45.492;11.548;2023-09-07T14:35:35;28.70;90.00
31391;DHT22;18022;45.492;11.548;2023-09-07T14:38:00;28.70;90.70
31391;DHT22;18022;45.492;11.548;2023-09-07T14:40:27;28.60;90.10
31391;DHT22;18022;45.492;11.548;2023-09-07T14:42:52;28.50;90.10
31391;DHT22;18022;45.492;11.548;2023-09-07T14:45:19;28.50;90.80
31391;DHT22;18022;45.492;11.548;2023-09-07T14:47:45;28.40;90.30
31391;DHT22;18022;45.492;11.548;2023-09-07T14:50:11;28.40;90.50
31391;DHT22;18022;45.492;11.548;2023-09-07T14:52:36;28.50;89.20
31391;DHT22;18022;45.492;11.548;2023-09-07T14:55:09;28.40;90.00
31391;DHT22;18022;45.492;11.548;2023-09-07T14:57:35;28.40;88.30
31391;DHT22;18022;45.492;11.548;2023-09-07T15:00:01;28.30;89.30
31391;DHT22;18022;45.492;11.548;2023-09-07T15:02:28;28.30;90.20
31391;DHT22;18022;45.492;11.548;2023-09-07T15:04:54;28.40;89.10
31391;DHT22;18022;45.492;11.548;2023-09-07T15:07:20;28.30;89.30
31391;DHT22;18022;45.492;11.548;2023-09-07T15:09:48;28.40;88.20
31391;DHT22;18022;45.492;11.548;2023-09-07T15:12:14;28.30;89.20
31391;DHT22;18022;45.492;11.548;2023-09-07T15:14:40;28.20;88.90